createdAt,value
2018-01-05T00:02:56.524Z,99076.92
2018-01-05T00:05:26.024Z,99071.37
2018-01-05T00:07:56.901Z,99068.19
2018-01-05T00:10:29.010Z,99062.38
2018-01-05T00:13:00.448Z,99064.41
2018-01-05T00:15:30.229Z,99065.92
2018-01-05T00:18:00.055Z,99082.68
2018-01-05T00:20:30.652Z,99074.13
2018-01-05T00:23:00.266Z,99078.14
2018-01-05T00:25:29.887Z,99068.70
2018-01-05T00:28:02.176Z,99070.22
2018-01-05T00:30:32.906Z,99075.38
2018-01-05T00:33:04.932Z,99089.69
2018-01-05T00:35:35.394Z,99110.30
2018-01-05T00:38:10.380Z,99120.63
2018-01-05T00:40:41.915Z,99144.72
2018-01-05T00:43:14.975Z,99150.89
2018-01-05T00:45:45.087Z,99134.48
2018-01-05T00:48:17.644Z,99137.10
2018-01-05T00:50:46.843Z,99148.00
2018-01-05T00:53:16.130Z,99168.19
2018-01-05T00:55:48.218Z,99177.20
2018-01-05T00:58:18.854Z,99185.20
2018-01-05T01:00:48.108Z,99189.66
2018-01-05T01:03:17.205Z,99206.00
2018-01-05T01:05:46.619Z,99198.51
2018-01-05T01:08:16.798Z,99218.59
2018-01-05T01:10:48.010Z,99205.64
2018-01-05T01:13:18.121Z,99220.14
2018-01-05T01:15:47.686Z,99235.89
2018-01-05T01:18:18.193Z,99227.21
2018-01-05T01:20:47.961Z,99240.70
2018-01-05T01:23:17.060Z,99222.91
2018-01-05T01:25:48.657Z,99218.83
2018-01-05T01:28:20.602Z,99202.04
2018-01-05T01:30:49.940Z,99217.06
2018-01-05T01:33:19.391Z,99215.06
2018-01-05T01:35:49.397Z,99216.27
2018-01-05T01:38:19.615Z,99216.22
2018-01-05T01:40:50.357Z,99223.05
2018-01-05T01:43:20.573Z,99212.80
2018-01-05T01:45:49.817Z,99212.19
2018-01-05T01:48:23.315Z,99218.06
2018-01-05T01:50:52.410Z,99208.49
2018-01-05T01:53:21.854Z,99213.94
2018-01-05T01:55:52.076Z,99219.56
2018-01-05T01:58:21.370Z,99220.64
2018-01-05T02:00:50.628Z,99228.39
2018-01-05T02:03:20.358Z,99244.95
2018-01-05T02:05:51.306Z,99241.52
2018-01-05T02:08:23.139Z,99225.31
2018-01-05T02:10:52.432Z,99232.60
2018-01-05T02:13:22.185Z,99226.78
2018-01-05T02:15:51.707Z,99220.59
2018-01-05T02:18:22.556Z,99228.40
2018-01-05T02:20:52.058Z,99215.78
2018-01-05T02:23:22.030Z,99218.34
2018-01-05T02:25:52.145Z,99196.47
2018-01-05T02:28:23.669Z,99195.63
2018-01-05T02:30:53.660Z,99199.20
2018-01-05T02:33:23.290Z,99190.02
2018-01-05T02:35:52.757Z,99175.73
2018-01-05T02:38:21.886Z,99172.18
2018-01-05T02:40:51.783Z,99160.60
2018-01-05T02:43:20.964Z,99164.00
2018-01-05T02:45:50.187Z,99156.63
2018-01-05T02:48:21.999Z,99158.88
2018-01-05T02:50:52.195Z,99170.29
2018-01-05T02:53:21.339Z,99172.67
2018-01-05T02:55:50.590Z,99170.20
2018-01-05T02:58:22.217Z,99174.08
2018-01-05T03:00:52.868Z,99182.44
2018-01-05T03:03:22.020Z,99183.68
2018-01-05T03:05:51.593Z,99182.86
2018-01-05T03:08:22.965Z,99188.42
2018-01-05T03:10:52.665Z,99190.66
2018-01-05T03:13:22.070Z,99184.69
2018-01-05T03:15:51.979Z,99182.06
2018-01-05T03:18:23.628Z,99168.64
2018-01-05T03:20:53.050Z,99168.76
2018-01-05T03:23:22.497Z,99156.16
2018-01-05T03:25:53.026Z,99154.77
2018-01-05T03:28:22.188Z,99176.31
2018-01-05T03:30:53.028Z,99175.98
2018-01-05T03:33:22.710Z,99168.03
2018-01-05T03:35:51.985Z,99157.58
2018-01-05T03:38:23.183Z,99149.41
2018-01-05T03:40:53.208Z,99140.55
2018-01-05T03:43:22.363Z,99128.70
2018-01-05T03:45:51.492Z,99127.02
2018-01-05T03:48:21.573Z,99129.80
2018-01-05T03:50:51.035Z,99124.08
2018-01-05T03:53:20.437Z,99110.70
2018-01-05T03:55:50.530Z,99120.40
2018-01-05T03:58:20.492Z,99115.89
2018-01-05T04:00:49.590Z,99112.06
2018-01-05T04:03:19.603Z,99111.83
2018-01-05T04:05:48.704Z,99105.48
2018-01-05T04:08:21.225Z,99114.39
2018-01-05T04:10:51.805Z,99100.89
2018-01-05T04:13:21.977Z,99113.84
2018-01-05T04:15:52.575Z,99112.68
2018-01-05T04:18:23.224Z,99107.23
2018-01-05T04:20:52.405Z,99100.81
2018-01-05T04:23:21.503Z,99091.63
2018-01-05T04:25:50.638Z,99080.48
2018-01-05T04:28:20.045Z,99080.66
2018-01-05T04:30:50.619Z,99075.23
2018-01-05T04:33:21.881Z,99082.12
2018-01-05T04:35:51.142Z,99071.39
2018-01-05T04:38:23.220Z,99072.36
2018-01-05T04:40:52.341Z,99066.27
2018-01-05T04:43:22.737Z,99048.16
2018-01-05T04:45:52.627Z,99045.23
2018-01-05T04:48:24.607Z,99042.40
2018-01-05T04:50:53.800Z,99047.93
2018-01-05T04:53:23.455Z,99052.16
2018-01-05T04:55:52.571Z,99050.64
2018-01-05T04:58:24.607Z,99044.34
2018-01-05T05:00:53.727Z,99046.73
2018-01-05T05:03:23.147Z,99049.27
2018-01-05T05:05:52.275Z,99047.58
2018-01-05T05:08:24.348Z,99060.06
2018-01-05T05:10:54.868Z,99056.28
2018-01-05T05:13:26.110Z,99058.87
2018-01-05T05:15:57.221Z,99051.56
2018-01-05T05:18:26.431Z,99048.86
2018-01-05T05:20:55.842Z,99037.98
2018-01-05T05:23:25.986Z,99033.97
2018-01-05T05:25:55.274Z,99043.27
2018-01-05T05:28:25.684Z,99047.34
2018-01-05T05:30:56.128Z,99041.97
2018-01-05T05:33:27.444Z,99029.72
2018-01-05T05:39:10.786Z,99029.38
